createdAt,value
2023-03-07T00:00:50.434Z,20.45
2023-03-07T00:03:17.817Z,19.60
2023-03-07T00:05:44.720Z,19.20
2023-03-07T00:08:12.225Z,19.52
2023-03-07T00:10:38.953Z,18.70
2023-03-07T00:13:05.508Z,18.73
2023-03-07T00:15:32.100Z,18.90
2023-03-07T00:17:58.761Z,19.48
2023-03-07T00:20:25.366Z,19.00
2023-03-07T00:22:51.921Z,19.20
2023-03-07T00:25:18.615Z,20.15
2023-03-07T00:27:45.172Z,19.73
2023-03-07T00:32:46.997Z,19.35
2023-03-07T00:35:16.116Z,19.27
2023-03-07T00:37:42.805Z,19.75
2023-03-07T00:40:10.282Z,19.33
2023-03-07T00:42:36.847Z,18.35
2023-03-07T00:46:03.319Z,18.70
2023-03-07T00:48:52.336Z,22.15
2023-03-07T00:51:21.091Z,19.67
2023-03-07T00:53:48.606Z,19.90
2023-03-07T00:56:16.727Z,20.33
2023-03-07T00:58:43.843Z,20.62
2023-03-07T01:01:12.291Z,20.37
2023-03-07T01:06:16.379Z,21.17
2023-03-07T01:08:43.384Z,19.70
2023-03-07T01:11:10.830Z,21.02
2023-03-07T01:13:37.839Z,20.88
2023-03-07T01:16:25.354Z,21.12
2023-03-07T01:19:25.820Z,21.25
2023-03-07T01:22:42.316Z,22.23
2023-03-07T01:25:21.735Z,22.27
2023-03-07T01:28:21.599Z,22.35
2023-03-07T01:34:05.532Z,23.30
2023-03-07T01:36:55.499Z,23.70
2023-03-07T01:39:23.148Z,23.27
2023-03-07T01:41:49.743Z,22.15
2023-03-07T01:44:17.807Z,22.00
2023-03-07T01:46:55.239Z,21.48
2023-03-07T01:50:27.762Z,23.45
2023-03-07T01:53:01.913Z,21.73
2023-03-07T01:55:32.027Z,21.40
2023-03-07T01:58:04.406Z,21.52
2023-03-07T02:00:30.983Z,22.15
2023-03-07T02:03:10.783Z,21.20
2023-03-07T02:05:41.184Z,21.50
2023-03-07T02:10:49.956Z,20.92
2023-03-07T02:13:16.917Z,22.13
2023-03-07T02:15:43.644Z,22.27
2023-03-07T02:18:15.736Z,21.98
2023-03-07T02:20:42.208Z,19.93
2023-03-07T02:27:07.914Z,22.37
2023-03-07T02:29:34.580Z,20.65
2023-03-07T02:32:01.132Z,22.23
2023-03-07T02:34:30.845Z,20.77
2023-03-07T02:37:22.452Z,22.90
2023-03-07T02:39:49.097Z,21.98
2023-03-07T02:42:25.546Z,20.02
2023-03-07T02:45:01.027Z,21.52
2023-03-07T02:47:27.850Z,20.62
2023-03-07T02:49:55.120Z,21.77
2023-03-07T02:52:28.613Z,20.02
2023-03-07T02:54:55.806Z,21.12
2023-03-07T02:57:25.041Z,21.50
2023-03-07T02:59:51.667Z,20.83
2023-03-07T03:02:23.531Z,21.65
2023-03-07T03:05:09.856Z,21.12
2023-03-07T03:07:48.920Z,21.70
2023-03-07T03:10:16.303Z,21.40
2023-03-07T03:15:24.808Z,20.02
2023-03-07T03:17:54.930Z,20.48
2023-03-07T03:20:21.618Z,19.90
2023-03-07T03:22:48.223Z,20.23
2023-03-07T03:25:15.225Z,20.62
2023-03-07T03:27:42.051Z,20.25
2023-03-07T03:30:12.429Z,21.23
2023-03-07T03:32:40.231Z,19.80
2023-03-07T03:35:07.726Z,21.05
2023-03-07T03:38:18.602Z,19.98
2023-03-07T03:41:19.530Z,20.25
2023-03-07T03:43:46.301Z,19.83
2023-03-07T03:46:13.094Z,19.60
2023-03-07T03:48:40.661Z,20.75
2023-03-07T03:51:16.224Z,20.90
2023-03-07T03:53:42.803Z,19.65
2023-03-07T03:56:21.307Z,20.80
2023-03-07T03:58:53.326Z,20.60
2023-03-07T04:01:22.495Z,21.60
2023-03-07T04:03:51.292Z,21.10
2023-03-07T04:06:21.272Z,21.08
2023-03-07T04:09:00.544Z,20.25
2023-03-07T04:11:42.524Z,20.75
2023-03-07T04:14:09.137Z,21.55
2023-03-07T04:16:35.789Z,20.77
2023-03-07T04:19:02.784Z,20.65
2023-03-07T04:21:29.335Z,21.00
2023-03-07T04:23:58.311Z,19.95
2023-03-07T04:29:06.817Z,22.00
2023-03-07T04:31:33.452Z,21.60
2023-03-07T04:34:00.078Z,20.27
2023-03-07T04:36:26.839Z,21.70
2023-03-07T04:38:53.455Z,20.80
2023-03-07T04:45:27.603Z,20.67
2023-03-07T04:47:54.159Z,20.60
2023-03-07T04:50:20.973Z,21.02
2023-03-07T04:52:47.577Z,19.48
2023-03-07T04:55:15.012Z,19.60
2023-03-07T04:57:42.005Z,20.55
2023-03-07T05:00:10.215Z,20.67
2023-03-07T05:02:37.858Z,19.80
2023-03-07T05:05:05.645Z,19.67
2023-03-07T05:07:32.848Z,19.05
2023-03-07T05:09:59.629Z,19.85
2023-03-07T05:12:26.162Z,19.92
2023-03-07T05:14:55.256Z,20.00
2023-03-07T05:17:41.941Z,19.87
2023-03-07T05:20:14.145Z,19.48
2023-03-07T05:22:40.773Z,20.10
2023-03-07T05:25:10.639Z,19.12
2023-03-07T05:27:37.299Z,19.37
2023-03-07T05:30:05.842Z,21.65
2023-03-07T05:32:35.097Z,19.50
2023-03-07T05:35:12.427Z,21.20
2023-03-07T05:37:38.974Z,20.40
2023-03-07T05:40:15.371Z,21.17
2023-03-07T05:42:41.924Z,20.45
2023-03-07T05:45:17.589Z,21.73
2023-03-07T05:48:09.714Z,20.83
2023-03-07T05:50:46.703Z,20.70
2023-03-07T05:53:13.329Z,21.33
2023-03-07T05:55:39.877Z,20.95
2023-03-07T05:58:06.637Z,21.25
2023-03-07T06:00:33.250Z,20.00
2023-03-07T06:03:04.794Z,21.85
2023-03-07T06:05:31.484Z,21.67
2023-03-07T06:08:00.131Z,21.27
2023-03-07T06:10:27.113Z,21.45
2023-03-07T06:12:54.811Z,21.40
2023-03-07T06:15:24.613Z,20.25
2023-03-07T06:17:52.710Z,20.33
2023-03-07T06:20:20.968Z,21.25
2023-03-07T06:22:48.872Z,19.80
2023-03-07T06:25:16.888Z,20.25
2023-03-07T06:27:43.526Z,19.67
2023-03-07T06:30:12.343Z,20.85
2023-03-07T06:32:38.961Z,23.00
2023-03-07T06:35:06.024Z,20.37
2023-03-07T06:37:32.619Z,21.35
2023-03-07T06:39:59.190Z,21.23
2023-03-07T06:42:25.777Z,19.12
2023-03-07T06:44:52.314Z,19.05
2023-03-07T06:47:18.853Z,20.77
2023-03-07T06:54:56.049Z,18.90
2023-03-07T06:57:22.665Z,17.35
2023-03-07T06:59:49.205Z,15.05
2023-03-07T07:02:15.905Z,15.52
2023-03-07T07:04:42.523Z,16.62
2023-03-07T07:07:31.126Z,20.20
2023-03-07T07:10:19.404Z,19.40
2023-03-07T07:12:47.424Z,19.42
2023-03-07T07:15:13.986Z,19.58
2023-03-07T07:17:40.584Z,18.77
2023-03-07T07:20:11.278Z,20.83
2023-03-07T07:22:37.843Z,21.45
2023-03-07T07:25:04.926Z,18.55
2023-03-07T07:27:31.620Z,19.27
2023-03-07T07:29:58.235Z,18.67
2023-03-07T07:32:24.959Z,18.55
2023-03-07T07:34:51.681Z,18.48
2023-03-07T07:37:18.349Z,18.08
2023-03-07T07:39:45.299Z,18.95
2023-03-07T07:42:12.534Z,19.37
2023-03-07T07:44:39.107Z,19.70
2023-03-07T07:47:05.832Z,19.77
2023-03-07T07:49:32.468Z,19.58
2023-03-07T07:51:59.146Z,19.23
2023-03-07T07:57:22.642Z,19.23
2023-03-07T07:59:49.837Z,19.65
2023-03-07T08:02:16.441Z,19.48
2023-03-07T08:04:43.182Z,19.10
2023-03-07T08:07:09.810Z,21.55
2023-03-07T08:12:29.991Z,18.73
2023-03-07T08:15:24.579Z,17.35
2023-03-07T08:17:51.421Z,17.52
2023-03-07T08:20:22.268Z,17.90
2023-03-07T08:22:50.604Z,18.10
2023-03-07T08:25:33.714Z,17.20
2023-03-07T08:28:03.217Z,16.62
2023-03-07T08:30:32.114Z,17.35
2023-03-07T08:32:59.238Z,16.67
2023-03-07T08:35:27.312Z,15.95
2023-03-07T08:37:55.794Z,15.27
2023-03-07T08:40:24.860Z,15.95
2023-03-07T08:42:51.918Z,15.05
2023-03-07T08:45:18.586Z,12.98
2023-03-07T08:47:45.432Z,14.55
2023-03-07T08:50:12.359Z,14.35
2023-03-07T08:52:38.929Z,13.70
2023-03-07T08:55:06.033Z,14.30
2023-03-07T08:57:33.426Z,13.85
2023-03-07T09:00:08.850Z,15.13
2023-03-07T09:02:50.581Z,13.75
2023-03-07T09:05:39.143Z,13.65
2023-03-07T09:08:07.233Z,13.55
2023-03-07T09:10:35.345Z,11.60
2023-03-07T09:13:01.979Z,12.18
2023-03-07T09:15:28.587Z,12.37
2023-03-07T09:17:55.222Z,11.48
2023-03-07T09:20:22.194Z,10.98
2023-03-07T09:22:48.855Z,11.85
2023-03-07T09:25:15.469Z,12.52
2023-03-07T09:27:45.453Z,11.25
2023-03-07T09:30:13.680Z,9.18
2023-03-07T09:32:40.563Z,8.43
2023-03-07T09:35:25.940Z,9.02
2023-03-07T09:38:16.644Z,8.27
2023-03-07T09:41:09.735Z,9.50
2023-03-07T09:43:59.529Z,8.50
2023-03-07T09:47:11.661Z,9.02
2023-03-07T09:49:47.196Z,9.45
2023-03-07T09:52:17.888Z,8.38
2023-03-07T09:55:01.627Z,9.18
2023-03-07T09:57:31.662Z,9.50
2023-03-07T10:00:28.122Z,8.82
2023-03-07T10:03:04.092Z,9.57
2023-03-07T10:05:51.052Z,9.82
2023-03-07T10:09:05.498Z,9.13
2023-03-07T10:11:50.152Z,10.02
2023-03-07T10:14:25.222Z,9.15
2023-03-07T10:16:52.005Z,9.25
2023-03-07T10:19:58.921Z,9.02
2023-03-07T10:25:31.631Z,4.70
2023-03-07T10:28:11.885Z,4.57
2023-03-07T10:30:38.624Z,4.40
2023-03-07T10:33:16.187Z,5.12
2023-03-07T10:35:45.470Z,5.53
2023-03-07T10:38:18.144Z,5.60
2023-03-07T10:40:56.807Z,5.57
2023-03-07T10:43:27.361Z,6.25
2023-03-07T10:46:23.721Z,7.20
2023-03-07T10:49:04.092Z,8.18
2023-03-07T10:51:50.660Z,7.70
2023-03-07T10:54:20.906Z,8.95
2023-03-07T10:57:07.498Z,7.85
2023-03-07T10:59:35.233Z,8.20
2023-03-07T11:02:05.913Z,9.32
2023-03-07T11:04:45.706Z,9.32
2023-03-07T11:07:32.811Z,9.98
2023-03-07T11:10:01.865Z,10.52
2023-03-07T11:12:31.924Z,10.13
2023-03-07T11:15:12.204Z,10.23
2023-03-07T11:17:45.110Z,10.70
2023-03-07T11:20:25.654Z,10.15
2023-03-07T11:23:30.855Z,9.82
2023-03-07T11:26:18.738Z,10.05
2023-03-07T11:28:45.320Z,9.65
2023-03-07T11:31:26.353Z,12.15
2023-03-07T11:34:17.638Z,10.10
2023-03-07T11:36:48.738Z,10.77
2023-03-07T11:39:18.035Z,9.10
2023-03-07T11:41:54.886Z,9.52
2023-03-07T11:44:44.296Z,9.65
2023-03-07T11:48:03.097Z,9.02
2023-03-07T11:50:32.411Z,8.55
2023-03-07T11:53:01.784Z,9.10
2023-03-07T11:55:47.128Z,8.80
2023-03-07T11:58:52.789Z,8.60
2023-03-07T12:01:40.814Z,8.27
2023-03-07T12:04:34.806Z,7.95
2023-03-07T12:07:19.479Z,7.87
2023-03-07T12:10:20.137Z,7.60
2023-03-07T12:12:56.686Z,7.50
2023-03-07T12:16:11.678Z,7.80
2023-03-07T12:19:04.468Z,6.70
2023-03-07T12:24:57.557Z,7.22
2023-03-07T12:27:32.569Z,6.75
2023-03-07T12:30:04.870Z,6.90
2023-03-07T12:32:35.772Z,6.72
2023-03-07T12:35:25.673Z,7.07
2023-03-07T12:37:52.166Z,7.30
2023-03-07T12:40:23.432Z,6.85
2023-03-07T12:43:10.540Z,6.78
2023-03-07T12:45:51.201Z,6.57
2023-03-07T12:48:56.949Z,6.12
2023-03-07T12:51:36.945Z,7.22
2023-03-07T12:54:06.237Z,7.35
2023-03-07T12:56:43.929Z,7.30
2023-03-07T12:59:16.017Z,7.90
2023-03-07T13:02:08.908Z,6.67
2023-03-07T13:04:38.398Z,6.97
2023-03-07T13:07:37.299Z,7.68
2023-03-07T13:10:06.903Z,7.70
2023-03-07T13:12:35.772Z,7.85
2023-03-07T13:15:17.477Z,7.90
2023-03-07T13:17:43.968Z,8.48
2023-03-07T13:20:19.307Z,7.85
2023-03-07T13:22:45.876Z,7.68
2023-03-07T13:25:56.345Z,7.70
2023-03-07T13:29:00.233Z,7.93
2023-03-07T13:31:37.240Z,8.50
2023-03-07T13:34:54.798Z,8.18
2023-03-07T13:37:50.148Z,7.50
2023-03-07T13:40:48.948Z,8.40
2023-03-07T13:43:27.470Z,8.15
2023-03-07T13:45:58.986Z,7.85
2023-03-07T13:48:31.347Z,8.35
2023-03-07T13:51:06.666Z,8.60
2023-03-07T13:53:48.489Z,7.75
2023-03-07T13:56:19.992Z,7.35
2023-03-07T13:58:48.749Z,8.13
2023-03-07T14:02:03.914Z,8.60
2023-03-07T14:04:41.054Z,8.13
2023-03-07T14:07:28.088Z,8.05
2023-03-07T14:10:09.901Z,7.68
2023-03-07T14:13:11.919Z,9.23
2023-03-07T14:15:45.024Z,8.75
2023-03-07T14:18:29.584Z,8.48
2023-03-07T14:21:17.856Z,8.63
2023-03-07T14:24:05.900Z,8.77
2023-03-07T14:26:37.660Z,9.43
2023-03-07T14:29:23.854Z,8.38
2023-03-07T14:31:57.190Z,8.75
2023-03-07T14:34:30.888Z,9.45
2023-03-07T14:37:05.476Z,9.43
2023-03-07T14:39:48.414Z,9.43
2023-03-07T14:42:20.875Z,9.27
2023-03-07T14:44:58.702Z,9.65
2023-03-07T14:47:30.150Z,9.18
2023-03-07T14:50:15.874Z,9.45
2023-03-07T14:52:43.386Z,10.18
2023-03-07T14:55:19.919Z,10.77
2023-03-07T14:57:52.606Z,10.15
2023-03-07T15:00:25.356Z,10.43
2023-03-07T15:02:55.588Z,12.30
2023-03-07T15:05:28.138Z,12.57
2023-03-07T15:07:55.086Z,10.98
2023-03-07T15:10:40.718Z,11.05
2023-03-07T15:13:42.351Z,10.57
2023-03-07T15:16:16.021Z,8.70
2023-03-07T15:18:49.801Z,9.43
2023-03-07T15:21:20.030Z,9.30
2023-03-07T15:23:56.313Z,8.00
2023-03-07T15:26:26.343Z,8.70
2023-03-07T15:29:09.034Z,8.63
2023-03-07T15:31:53.582Z,9.05
2023-03-07T15:34:40.434Z,8.10
2023-03-07T15:37:26.948Z,8.95
2023-03-07T15:40:01.381Z,8.65
2023-03-07T15:42:29.019Z,8.57
2023-03-07T15:45:00.975Z,8.25
2023-03-07T15:47:29.999Z,8.48
2023-03-07T15:49:58.820Z,8.75
2023-03-07T15:52:37.634Z,7.57
2023-03-07T15:55:16.200Z,7.75
2023-03-07T15:57:52.600Z,9.27
2023-03-07T16:00:26.751Z,8.85
2023-03-07T16:02:53.421Z,9.25
2023-03-07T16:05:20.791Z,8.52
2023-03-07T16:07:49.205Z,9.00
2023-03-07T16:10:16.085Z,9.07
2023-03-07T16:12:46.602Z,21.15
2023-03-07T16:15:17.760Z,12.70
2023-03-07T16:17:45.012Z,13.75
2023-03-07T16:20:17.163Z,10.35
2023-03-07T16:22:44.482Z,11.07
2023-03-07T16:25:15.650Z,9.88
2023-03-07T16:27:51.645Z,8.68
2023-03-07T16:30:25.050Z,10.15
2023-03-07T16:32:52.341Z,8.90
2023-03-07T16:35:24.485Z,8.55
2023-03-07T16:37:51.546Z,9.70
2023-03-07T16:40:18.327Z,8.82
2023-03-07T16:42:46.848Z,8.23
2023-03-07T16:45:23.789Z,8.05
2023-03-07T16:47:58.653Z,7.37
2023-03-07T16:50:33.379Z,8.25
2023-03-07T16:53:00.428Z,8.10
2023-03-07T16:55:27.117Z,7.80
2023-03-07T16:58:03.100Z,8.10
2023-03-07T17:00:29.914Z,9.23
2023-03-07T17:02:59.923Z,8.50
2023-03-07T17:05:28.696Z,8.30
2023-03-07T17:07:57.293Z,8.52
2023-03-07T17:10:26.511Z,8.93
2023-03-07T17:12:55.085Z,8.77
2023-03-07T17:15:30.295Z,10.18
2023-03-07T17:17:58.025Z,9.85
2023-03-07T17:20:24.856Z,9.80
2023-03-07T17:22:52.319Z,9.27
2023-03-07T17:25:21.519Z,9.45
2023-03-07T17:28:08.453Z,10.07
2023-03-07T17:30:35.113Z,9.48
2023-03-07T17:33:01.809Z,10.13
2023-03-07T17:35:28.642Z,9.73
2023-03-07T17:37:55.716Z,9.48
2023-03-07T17:40:22.745Z,10.18
2023-03-07T17:42:51.130Z,10.18
2023-03-07T17:45:18.448Z,10.60
2023-03-07T17:47:45.035Z,11.90
2023-03-07T17:50:12.263Z,13.40
2023-03-07T17:52:38.845Z,12.30
2023-03-07T17:55:09.571Z,12.95
2023-03-07T17:57:36.771Z,14.35
2023-03-07T18:00:08.735Z,14.30
2023-03-07T18:02:35.363Z,15.52
2023-03-07T18:05:01.996Z,14.38
2023-03-07T18:07:28.609Z,15.07
2023-03-07T18:10:07.154Z,13.77
2023-03-07T18:12:39.238Z,13.55
2023-03-07T18:15:08.343Z,12.10
2023-03-07T18:17:46.948Z,12.18
2023-03-07T18:20:15.227Z,12.80
2023-03-07T18:22:42.864Z,12.50
2023-03-07T18:25:12.869Z,13.27
2023-03-07T18:27:39.504Z,12.45
2023-03-07T18:30:06.632Z,12.93
2023-03-07T18:32:34.283Z,12.05
2023-03-07T18:35:01.103Z,12.75
2023-03-07T18:37:39.546Z,12.50
2023-03-07T18:40:06.996Z,14.10
2023-03-07T18:42:34.302Z,15.00
2023-03-07T18:45:00.879Z,14.75
2023-03-07T18:47:27.468Z,15.07
2023-03-07T18:49:54.079Z,16.00
2023-03-07T18:52:20.700Z,15.38
2023-03-07T18:54:48.534Z,14.57
2023-03-07T18:57:15.275Z,15.48
2023-03-07T18:59:41.857Z,15.50
2023-03-07T19:02:10.147Z,12.93
2023-03-07T19:04:36.796Z,13.73
2023-03-07T19:07:04.102Z,12.15
2023-03-07T19:09:31.652Z,12.75
2023-03-07T19:11:58.288Z,12.20
2023-03-07T19:14:26.382Z,12.95
2023-03-07T19:16:53.168Z,11.90
2023-03-07T19:19:19.787Z,12.20
2023-03-07T19:21:46.345Z,12.98
2023-03-07T19:24:13.067Z,13.05
2023-03-07T19:26:40.944Z,12.27
2023-03-07T19:29:09.710Z,11.95
2023-03-07T19:31:36.442Z,12.50
2023-03-07T19:34:05.102Z,11.77
2023-03-07T19:36:35.235Z,12.37
2023-03-07T19:39:02.255Z,11.77
2023-03-07T19:41:31.437Z,11.30
2023-03-07T19:43:59.713Z,11.52
2023-03-07T19:46:26.922Z,12.23
2023-03-07T19:48:54.023Z,11.85
2023-03-07T19:51:23.362Z,11.15
2023-03-07T19:53:51.231Z,11.35
2023-03-07T19:56:22.260Z,11.57
2023-03-07T19:58:49.178Z,10.63
2023-03-07T20:01:21.544Z,9.85
2023-03-07T20:03:49.013Z,11.50
2023-03-07T20:06:20.005Z,10.48
2023-03-07T20:08:51.463Z,11.73
2023-03-07T20:11:20.554Z,10.65
2023-03-07T20:13:50.663Z,10.32
2023-03-07T20:16:20.377Z,11.93
2023-03-07T20:18:51.646Z,9.82
2023-03-07T20:21:19.941Z,11.05
2023-03-07T20:23:48.395Z,10.63
2023-03-07T20:26:24.791Z,10.05
2023-03-07T20:28:52.762Z,9.88
2023-03-07T20:31:20.334Z,10.23
2023-03-07T20:33:47.117Z,10.10
2023-03-07T20:36:19.503Z,10.30
2023-03-07T20:38:51.057Z,9.50
2023-03-07T20:41:20.982Z,9.75
2023-03-07T20:43:48.342Z,8.82
2023-03-07T20:46:16.892Z,9.15
2023-03-07T20:48:44.186Z,9.38
2023-03-07T20:51:23.347Z,9.68
2023-03-07T20:54:06.613Z,8.73
2023-03-07T20:59:16.793Z,8.32
2023-03-07T21:01:56.973Z,9.00
2023-03-07T21:04:27.128Z,8.82
2023-03-07T21:06:53.782Z,9.63
2023-03-07T21:09:20.544Z,8.40
2023-03-07T21:12:00.757Z,9.20
2023-03-07T21:14:27.613Z,9.07
2023-03-07T21:16:54.171Z,8.63
2023-03-07T21:19:23.415Z,9.55
2023-03-07T21:21:49.976Z,9.60
2023-03-07T21:24:16.614Z,8.95
2023-03-07T21:26:43.375Z,9.60
2023-03-07T21:29:10.885Z,9.35
2023-03-07T21:31:38.805Z,9.60
2023-03-07T21:36:56.348Z,9.27
2023-03-07T21:39:24.203Z,9.88
2023-03-07T21:41:51.263Z,10.50
2023-03-07T21:44:18.004Z,9.93
2023-03-07T21:46:45.264Z,10.45
2023-03-07T21:49:36.629Z,9.73
2023-03-07T21:52:21.522Z,10.15
2023-03-07T21:54:48.114Z,9.85
2023-03-07T21:57:14.694Z,10.82
2023-03-07T21:59:41.508Z,10.48
2023-03-07T22:02:10.562Z,10.60
2023-03-07T22:04:37.248Z,11.23
2023-03-07T22:10:07.325Z,11.55
2023-03-07T22:15:29.326Z,12.73
2023-03-07T22:20:31.841Z,11.25
2023-03-07T22:24:18.111Z,12.00
2023-03-07T22:27:05.977Z,13.35
2023-03-07T22:29:33.067Z,12.63
2023-03-07T22:32:01.566Z,13.50
2023-03-07T22:34:29.380Z,12.70
2023-03-07T22:36:57.470Z,13.18
2023-03-07T22:39:39.435Z,11.98
2023-03-07T22:42:06.197Z,13.45
2023-03-07T22:44:32.796Z,14.60
2023-03-07T22:46:59.735Z,14.65
2023-03-07T22:49:30.387Z,14.38
2023-03-07T22:51:57.196Z,14.57
2023-03-07T22:54:23.911Z,13.62
2023-03-07T22:56:50.445Z,14.35
2023-03-07T22:59:17.023Z,15.65
2023-03-07T23:01:43.651Z,15.23
2023-03-07T23:04:25.754Z,15.15
2023-03-07T23:07:27.346Z,14.68
2023-03-07T23:09:53.919Z,14.85
2023-03-07T23:12:38.723Z,15.75
2023-03-07T23:15:05.722Z,15.05
2023-03-07T23:17:32.353Z,13.55
2023-03-07T23:19:58.963Z,15.20
2023-03-07T23:22:43.795Z,14.32
2023-03-07T23:25:11.279Z,13.90
2023-03-07T23:27:37.952Z,14.98
2023-03-07T23:30:06.351Z,15.25
2023-03-07T23:32:45.876Z,15.10
2023-03-07T23:38:12.112Z,19.50
2023-03-07T23:40:39.188Z,18.58
2023-03-07T23:43:06.441Z,16.75
2023-03-07T23:45:33.233Z,18.35
2023-03-07T23:47:59.790Z,19.20
2023-03-07T23:50:26.337Z,18.27
2023-03-07T23:52:58.241Z,20.48
2023-03-07T23:55:24.881Z,20.00
2023-03-07T23:57:51.598Z,18.98
